sensor_id;sensor_type;location;lat;lon;timestamp;P1;durP1;ratioP1;P2;durP2;ratioP2
45296;SDS011;31040;51.622;10.420;2022-11-15T00:01:08;8.50;;;6.70;;
45296;SDS011;31040;51.622;10.420;2022-11-15T00:03:36;12.15;;;7.22;;
45296;SDS011;31040;51.622;10.420;2022-11-15T00:06:03;11.13;;;7.45;;
45296;SDS011;31040;51.622;10.420;2022-11-15T00:08:31;9.38;;;6.93;;
45296;SDS011;31040;51.622;10.420;2022-11-15T00:10:59;10.15;;;7.63;;
45296;SDS011;31040;51.622;10.420;2022-11-15T00:13:27;8.98;;;6.85;;
45296;SDS011;31040;51.622;10.420;2022-11-15T00:15:59;8.65;;;6.93;;
45296;SDS011;31040;51.622;10.420;2022-11-15T00:18:27;8.75;;;7.68;;
45296;SDS011;31040;51.622;10.420;2022-11-15T00:20:55;8.32;;;6.13;;
45296;SDS011;31040;51.622;10.420;2022-11-15T00:23:22;8.20;;;6.90;;
45296;SDS011;31040;51.622;10.420;2022-11-15T00:25:57;9.10;;;6.80;;
45296;SDS011;31040;51.622;10.420;2022-11-15T00:28:25;10.52;;;7.10;;
45296;SDS011;31040;51.622;10.420;2022-11-15T00:30:52;10.35;;;7.78;;
45296;SDS011;31040;51.622;10.420;2022-11-15T00:33:20;9.18;;;6.95;;
45296;SDS011;31040;51.622;10.420;2022-11-15T00:35:47;10.70;;;7.68;;
45296;SDS011;31040;51.622;10.420;2022-11-15T00:38:15;9.85;;;7.00;;
45296;SDS011;31040;51.622;10.420;2022-11-15T00:40:42;10.48;;;6.70;;
45296;SDS011;31040;51.622;10.420;2022-11-15T00:43:10;8.07;;;6.45;;
45296;SDS011;31040;51.622;10.420;2022-11-15T00:45:37;8.70;;;6.88;;
45296;SDS011;31040;51.622;10.420;2022-11-15T00:48:04;9.85;;;6.68;;
45296;SDS011;31040;51.622;10.420;2022-11-15T00:50:32;7.45;;;6.05;;
45296;SDS011;31040;51.622;10.420;2022-11-15T00:52:59;9.82;;;6.88;;
45296;SDS011;31040;51.622;10.420;2022-11-15T00:55:27;8.82;;;6.80;;
45296;SDS011;31040;51.622;10.420;2022-11-15T00:57:54;8.00;;;7.03;;
45296;SDS011;31040;51.622;10.420;2022-11-15T01:00:22;7.13;;;6.22;;
45296;SDS011;31040;51.622;10.420;2022-11-15T01:02:49;8.27;;;6.70;;
45296;SDS011;31040;51.622;10.420;2022-11-15T01:05:17;10.38;;;7.53;;
45296;SDS011;31040;51.622;10.420;2022-11-15T01:07:44;7.93;;;6.53;;
45296;SDS011;31040;51.622;10.420;2022-11-15T01:10:11;10.38;;;7.30;;
45296;SDS011;31040;51.622;10.420;2022-11-15T01:12:39;8.95;;;6.50;;
45296;SDS011;31040;51.622;10.420;2022-11-15T01:15:06;10.48;;;7.43;;
45296;SDS011;31040;51.622;10.420;2022-11-15T01:17:34;9.48;;;7.85;;
45296;SDS011;31040;51.622;10.420;2022-11-15T01:20:02;9.95;;;7.80;;
45296;SDS011;31040;51.622;10.420;2022-11-15T01:22:29;8.70;;;6.60;;
45296;SDS011;31040;51.622;10.420;2022-11-15T01:24:57;10.18;;;7.05;;
45296;SDS011;31040;51.622;10.420;2022-11-15T01:27:24;11.50;;;8.07;;
45296;SDS011;31040;51.622;10.420;2022-11-15T01:29:51;10.95;;;8.00;;
45296;SDS011;31040;51.622;10.420;2022-11-15T01:32:19;11.35;;;8.88;;
45296;SDS011;31040;51.622;10.420;2022-11-15T01:34:46;10.55;;;7.28;;
45296;SDS011;31040;51.622;10.420;2022-11-15T01:37:13;10.40;;;7.70;;
45296;SDS011;31040;51.622;10.420;2022-11-15T01:39:41;9.20;;;7.35;;
45296;SDS011;31040;51.622;10.420;2022-11-15T01:42:11;10.80;;;7.90;;
45296;SDS011;31040;51.622;10.420;2022-11-15T01:44:43;10.30;;;8.10;;
45296;SDS011;31040;51.622;10.420;2022-11-15T01:47:15;12.25;;;7.65;;
45296;SDS011;31040;51.622;10.420;2022-11-15T01:49:47;7.88;;;6.72;;
45296;SDS011;31040;51.622;10.420;2022-11-15T01:52:17;8.30;;;6.30;;
45296;SDS011;31040;51.622;10.420;2022-11-15T01:54:45;7.32;;;5.97;;
45296;SDS011;31040;51.622;10.420;2022-11-15T01:57:13;8.65;;;6.72;;
45296;SDS011;31040;51.622;10.420;2022-11-15T01:59:42;9.48;;;6.00;;
45296;SDS011;31040;51.622;10.420;2022-11-15T02:02:10;10.38;;;6.43;;
45296;SDS011;31040;51.622;10.420;2022-11-15T02:04:40;7.72;;;6.47;;
45296;SDS011;31040;51.622;10.420;2022-11-15T02:07:08;12.82;;;7.43;;
45296;SDS011;31040;51.622;10.420;2022-11-15T02:09:37;9.80;;;7.93;;
45296;SDS011;31040;51.622;10.420;2022-11-15T02:12:05;12.70;;;8.57;;
45296;SDS011;31040;51.622;10.420;2022-11-15T02:14:33;9.77;;;7.72;;
45296;SDS011;31040;51.622;10.420;2022-11-15T02:36:11;9.60;;;6.57;;
45296;SDS011;31040;51.622;10.420;2022-11-15T02:38:42;9.48;;;7.18;;
45296;SDS011;31040;51.622;10.420;2022-11-15T02:41:20;10.48;;;6.57;;
45296;SDS011;31040;51.622;10.420;2022-11-15T02:43:50;10.82;;;7.05;;
45296;SDS011;31040;51.622;10.420;2022-11-15T02:49:12;7.18;;;6.47;;
45296;SDS011;31040;51.622;10.420;2022-11-15T02:51:42;11.30;;;7.35;;
45296;SDS011;31040;51.622;10.420;2022-11-15T02:54:15;7.25;;;6.05;;
45296;SDS011;31040;51.622;10.420;2022-11-15T02:56:44;8.75;;;6.18;;
45296;SDS011;31040;51.622;10.420;2022-11-15T03:09:42;8.45;;;6.30;;
45296;SDS011;31040;51.622;10.420;2022-11-15T03:14:54;8.80;;;6.07;;
45296;SDS011;31040;51.622;10.420;2022-11-15T03:19:53;8.55;;;6.68;;
45296;SDS011;31040;51.622;10.420;2022-11-15T03:22:23;8.93;;;6.60;;
45296;SDS011;31040;51.622;10.420;2022-11-15T03:24:55;8.45;;;6.20;;
45296;SDS011;31040;51.622;10.420;2022-11-15T03:27:26;11.05;;;8.10;;
45296;SDS011;31040;51.622;10.420;2022-11-15T03:30:04;7.13;;;5.70;;
45296;SDS011;31040;51.622;10.420;2022-11-15T03:32:37;7.80;;;6.20;;
45296;SDS011;31040;51.622;10.420;2022-11-15T03:35:11;9.43;;;6.97;;
45296;SDS011;31040;51.622;10.420;2022-11-15T03:37:44;6.43;;;5.30;;
45296;SDS011;31040;51.622;10.420;2022-11-15T03:40:13;8.85;;;6.70;;
45296;SDS011;31040;51.622;10.420;2022-11-15T03:48:14;7.70;;;6.00;;
45296;SDS011;31040;51.622;10.420;2022-11-15T03:50:44;7.32;;;5.93;;
45296;SDS011;31040;51.622;10.420;2022-11-15T03:53:12;7.93;;;5.65;;
45296;SDS011;31040;51.622;10.420;2022-11-15T03:55:40;9.38;;;6.22;;
45296;SDS011;31040;51.622;10.420;2022-11-15T03:58:07;11.65;;;6.40;;
45296;SDS011;31040;51.622;10.420;2022-11-15T04:00:35;7.93;;;5.65;;
45296;SDS011;31040;51.622;10.420;2022-11-15T04:03:02;8.65;;;6.75;;
45296;SDS011;31040;51.622;10.420;2022-11-15T04:05:30;9.95;;;5.72;;
45296;SDS011;31040;51.622;10.420;2022-11-15T04:07:57;10.52;;;6.22;;
45296;SDS011;31040;51.622;10.420;2022-11-15T04:10:25;6.57;;;5.45;;
45296;SDS011;31040;51.622;10.420;2022-11-15T04:12:52;7.80;;;5.93;;
45296;SDS011;31040;51.622;10.420;2022-11-15T04:15:21;8.27;;;5.25;;
45296;SDS011;31040;51.622;10.420;2022-11-15T04:20:17;5.60;;;5.00;;
45296;SDS011;31040;51.622;10.420;2022-11-15T04:23:05;8.27;;;5.80;;
45296;SDS011;31040;51.622;10.420;2022-11-15T04:25:52;8.80;;;6.20;;
45296;SDS011;31040;51.622;10.420;2022-11-15T04:28:21;10.15;;;5.85;;
45296;SDS011;31040;51.622;10.420;2022-11-15T04:30:51;10.82;;;7.25;;
45296;SDS011;31040;51.622;10.420;2022-11-15T04:33:38;7.75;;;5.68;;
45296;SDS011;31040;51.622;10.420;2022-11-15T04:36:05;7.53;;;5.43;;
45296;SDS011;31040;51.622;10.420;2022-11-15T04:38:52;9.23;;;6.10;;
45296;SDS011;31040;51.622;10.420;2022-11-15T04:41:19;9.50;;;6.20;;
45296;SDS011;31040;51.622;10.420;2022-11-15T04:43:47;8.88;;;6.97;;
45296;SDS011;31040;51.622;10.420;2022-11-15T04:46:14;9.70;;;6.50;;
45296;SDS011;31040;51.622;10.420;2022-11-15T04:48:41;11.45;;;8.07;;
45296;SDS011;31040;51.622;10.420;2022-11-15T04:51:09;9.75;;;6.63;;
45296;SDS011;31040;51.622;10.420;2022-11-15T04:53:36;9.15;;;6.32;;
45296;SDS011;31040;51.622;10.420;2022-11-15T04:56:03;10.13;;;6.65;;
45296;SDS011;31040;51.622;10.420;2022-11-15T04:58:31;8.23;;;6.75;;
45296;SDS011;31040;51.622;10.420;2022-11-15T05:00:58;8.93;;;6.18;;
45296;SDS011;31040;51.622;10.420;2022-11-15T05:03:33;10.43;;;6.80;;
45296;SDS011;31040;51.622;10.420;2022-11-15T05:06:19;8.75;;;5.90;;
45296;SDS011;31040;51.622;10.420;2022-11-15T05:08:46;6.88;;;5.10;;
45296;SDS011;31040;51.622;10.420;2022-11-15T05:11:13;6.75;;;6.05;;
45296;SDS011;31040;51.622;10.420;2022-11-15T05:13:41;7.53;;;5.80;;
45296;SDS011;31040;51.622;10.420;2022-11-15T05:16:08;8.50;;;5.82;;
45296;SDS011;31040;51.622;10.420;2022-11-15T05:18:36;7.72;;;5.50;;
45296;SDS011;31040;51.622;10.420;2022-11-15T05:21:08;10.50;;;5.72;;
45296;SDS011;31040;51.622;10.420;2022-11-15T05:23:36;7.97;;;5.78;;
45296;SDS011;31040;51.622;10.420;2022-11-15T05:26:04;9.75;;;5.95;;
45296;SDS011;31040;51.622;10.420;2022-11-15T05:28:34;10.48;;;6.80;;
45296;SDS011;31040;51.622;10.420;2022-11-15T05:31:06;7.70;;;5.55;;
45296;SDS011;31040;51.622;10.420;2022-11-15T05:33:34;7.55;;;5.80;;
45296;SDS011;31040;51.622;10.420;2022-11-15T05:36:04;8.30;;;6.05;;
45296;SDS011;31040;51.622;10.420;2022-11-15T05:38:32;8.48;;;5.72;;
45296;SDS011;31040;51.622;10.420;2022-11-15T05:41:00;9.15;;;5.68;;
45296;SDS011;31040;51.622;10.420;2022-11-15T05:43:29;9.18;;;5.95;;
45296;SDS011;31040;51.622;10.420;2022-11-15T05:45:58;7.43;;;5.40;;
45296;SDS011;31040;51.622;10.420;2022-11-15T05:48:26;8.50;;;4.93;;
45296;SDS011;31040;51.622;10.420;2022-11-15T05:50:53;7.75;;;6.13;;
45296;SDS011;31040;51.622;10.420;2022-11-15T05:53:21;9.43;;;6.95;;
45296;SDS011;31040;51.622;10.420;2022-11-15T05:55:49;7.43;;;5.82;;
45296;SDS011;31040;51.622;10.420;2022-11-15T05:58:17;9.02;;;5.78;;
45296;SDS011;31040;51.622;10.420;2022-11-15T06:00:45;9.48;;;6.53;;
45296;SDS011;31040;51.622;10.420;2022-11-15T06:03:13;8.50;;;6.47;;
45296;SDS011;31040;51.622;10.420;2022-11-15T06:05:40;9.90;;;5.85;;
45296;SDS011;31040;51.622;10.420;2022-11-15T06:08:07;8.05;;;5.70;;
45296;SDS011;31040;51.622;10.420;2022-11-15T06:10:35;8.75;;;6.03;;
45296;SDS011;31040;51.622;10.420;2022-11-15T06:13:03;5.68;;;5.07;;
45296;SDS011;31040;51.622;10.420;2022-11-15T06:15:33;9.00;;;6.32;;
45296;SDS011;31040;51.622;10.420;2022-11-15T06:18:01;9.85;;;5.55;;
45296;SDS011;31040;51.622;10.420;2022-11-15T06:20:29;10.25;;;6.35;;
45296;SDS011;31040;51.622;10.420;2022-11-15T06:23:00;8.68;;;5.70;;
45296;SDS011;31040;51.622;10.420;2022-11-15T06:25:28;7.95;;;5.82;;
45296;SDS011;31040;51.622;10.420;2022-11-15T06:27:56;9.20;;;6.10;;
45296;SDS011;31040;51.622;10.420;2022-11-15T06:30:24;8.95;;;5.53;;
45296;SDS011;31040;51.622;10.420;2022-11-15T06:32:57;8.60;;;6.43;;
45296;SDS011;31040;51.622;10.420;2022-11-15T06:35:25;11.02;;;6.55;;
45296;SDS011;31040;51.622;10.420;2022-11-15T06:37:52;7.60;;;6.15;;
45296;SDS011;31040;51.622;10.420;2022-11-15T06:40:20;12.00;;;8.20;;
45296;SDS011;31040;51.622;10.420;2022-11-15T06:42:47;12.15;;;9.48;;
45296;SDS011;31040;51.622;10.420;2022-11-15T06:45:14;10.73;;;8.60;;
45296;SDS011;31040;51.622;10.420;2022-11-15T06:47:45;12.25;;;8.05;;
45296;SDS011;31040;51.622;10.420;2022-11-15T06:50:13;14.00;;;7.57;;
45296;SDS011;31040;51.622;10.420;2022-11-15T06:52:40;11.13;;;8.30;;
45296;SDS011;31040;51.622;10.420;2022-11-15T06:55:08;14.68;;;7.70;;
45296;SDS011;31040;51.622;10.420;2022-11-15T06:57:36;9.00;;;7.38;;
45296;SDS011;31040;51.622;10.420;2022-11-15T07:00:04;11.20;;;7.10;;
45296;SDS011;31040;51.622;10.420;2022-11-15T07:02:31;10.77;;;8.45;;
45296;SDS011;31040;51.622;10.420;2022-11-15T07:04:59;9.00;;;6.85;;
45296;SDS011;31040;51.622;10.420;2022-11-15T07:07:26;14.50;;;9.80;;
45296;SDS011;31040;51.622;10.420;2022-11-15T07:09:54;10.25;;;7.18;;
45296;SDS011;31040;51.622;10.420;2022-11-15T07:12:21;12.05;;;7.88;;
45296;SDS011;31040;51.622;10.420;2022-11-15T07:14:49;11.75;;;7.85;;
45296;SDS011;31040;51.622;10.420;2022-11-15T07:17:16;12.90;;;7.57;;
45296;SDS011;31040;51.622;10.420;2022-11-15T07:19:43;11.05;;;8.75;;
45296;SDS011;31040;51.622;10.420;2022-11-15T07:22:11;38.90;;;10.38;;
45296;SDS011;31040;51.622;10.420;2022-11-15T07:24:38;14.30;;;8.25;;
45296;SDS011;31040;51.622;10.420;2022-11-15T07:27:06;17.08;;;9.02;;
45296;SDS011;31040;51.622;10.420;2022-11-15T07:29:33;11.43;;;8.18;;
45296;SDS011;31040;51.622;10.420;2022-11-15T07:32:00;13.45;;;9.07;;
45296;SDS011;31040;51.622;10.420;2022-11-15T07:34:28;14.45;;;10.30;;
45296;SDS011;31040;51.622;10.420;2022-11-15T07:36:55;39.70;;;13.63;;
45296;SDS011;31040;51.622;10.420;2022-11-15T07:39:23;17.05;;;11.48;;
45296;SDS011;31040;51.622;10.420;2022-11-15T07:41:50;26.60;;;14.35;;
45296;SDS011;31040;51.622;10.420;2022-11-15T07:44:38;19.98;;;14.57;;
45296;SDS011;31040;51.622;10.420;2022-11-15T07:47:05;18.10;;;12.32;;
45296;SDS011;31040;51.622;10.420;2022-11-15T07:49:33;15.18;;;10.00;;
45296;SDS011;31040;51.622;10.420;2022-11-15T07:52:00;11.65;;;7.80;;
45296;SDS011;31040;51.622;10.420;2022-11-15T07:54:27;12.95;;;9.10;;
45296;SDS011;31040;51.622;10.420;2022-11-15T07:56:55;14.73;;;10.23;;
45296;SDS011;31040;51.622;10.420;2022-11-15T07:59:27;13.90;;;7.88;;
45296;SDS011;31040;51.622;10.420;2022-11-15T08:01:55;12.65;;;8.52;;
45296;SDS011;31040;51.622;10.420;2022-11-15T08:04:22;14.60;;;8.77;;
45296;SDS011;31040;51.622;10.420;2022-11-15T08:06:50;16.67;;;9.93;;
45296;SDS011;31040;51.622;10.420;2022-11-15T08:09:17;13.70;;;10.00;;
45296;SDS011;31040;51.622;10.420;2022-11-15T08:11:45;13.13;;;9.93;;
45296;SDS011;31040;51.622;10.420;2022-11-15T08:14:12;12.82;;;10.07;;
45296;SDS011;31040;51.622;10.420;2022-11-15T08:16:40;13.60;;;9.98;;
45296;SDS011;31040;51.622;10.420;2022-11-15T08:19:07;11.20;;;8.18;;
45296;SDS011;31040;51.622;10.420;2022-11-15T08:21:35;9.25;;;6.82;;
45296;SDS011;31040;51.622;10.420;2022-11-15T08:24:03;8.07;;;5.85;;
45296;SDS011;31040;51.622;10.420;2022-11-15T08:26:31;11.73;;;6.80;;
45296;SDS011;31040;51.622;10.420;2022-11-15T08:28:59;7.70;;;5.28;;
45296;SDS011;31040;51.622;10.420;2022-11-15T08:31:26;7.97;;;5.68;;
45296;SDS011;31040;51.622;10.420;2022-11-15T08:33:53;7.07;;;4.75;;
45296;SDS011;31040;51.622;10.420;2022-11-15T08:36:21;13.35;;;6.22;;
45296;SDS011;31040;51.622;10.420;2022-11-15T08:38:48;6.13;;;5.25;;
45296;SDS011;31040;51.622;10.420;2022-11-15T08:41:26;6.57;;;5.47;;
45296;SDS011;31040;51.622;10.420;2022-11-15T08:43:54;10.77;;;5.55;;
45296;SDS011;31040;51.622;10.420;2022-11-15T08:46:22;8.80;;;5.75;;
45296;SDS011;31040;51.622;10.420;2022-11-15T08:48:50;8.88;;;5.88;;
45296;SDS011;31040;51.622;10.420;2022-11-15T08:51:17;6.97;;;4.65;;
45296;SDS011;31040;51.622;10.420;2022-11-15T08:53:44;7.25;;;5.28;;
45296;SDS011;31040;51.622;10.420;2022-11-15T08:56:13;6.03;;;4.82;;
45296;SDS011;31040;51.622;10.420;2022-11-15T08:58:40;6.57;;;4.88;;
45296;SDS011;31040;51.622;10.420;2022-11-15T09:01:19;7.47;;;5.07;;
45296;SDS011;31040;51.622;10.420;2022-11-15T09:03:46;8.13;;;5.72;;
45296;SDS011;31040;51.622;10.420;2022-11-15T09:06:14;6.45;;;4.85;;
45296;SDS011;31040;51.622;10.420;2022-11-15T09:08:42;7.85;;;4.78;;
45296;SDS011;31040;51.622;10.420;2022-11-15T09:11:22;5.22;;;4.53;;
45296;SDS011;31040;51.622;10.420;2022-11-15T09:13:50;6.47;;;4.45;;
45296;SDS011;31040;51.622;10.420;2022-11-15T09:16:18;6.10;;;4.68;;
45296;SDS011;31040;51.622;10.420;2022-11-15T09:18:45;23.50;;;8.32;;
45296;SDS011;31040;51.622;10.420;2022-11-15T09:21:13;8.02;;;5.47;;
45296;SDS011;31040;51.622;10.420;2022-11-15T09:23:40;7.55;;;6.10;;
45296;SDS011;31040;51.622;10.420;2022-11-15T09:26:08;5.85;;;4.85;;
45296;SDS011;31040;51.622;10.420;2022-11-15T09:28:35;7.90;;;4.97;;
45296;SDS011;31040;51.622;10.420;2022-11-15T09:31:04;6.47;;;4.30;;
45296;SDS011;31040;51.622;10.420;2022-11-15T09:33:31;8.43;;;4.70;;
45296;SDS011;31040;51.622;10.420;2022-11-15T09:36:00;7.88;;;4.55;;
45296;SDS011;31040;51.622;10.420;2022-11-15T09:38:28;8.18;;;4.57;;
45296;SDS011;31040;51.622;10.420;2022-11-15T09:41:22;5.72;;;4.30;;
45296;SDS011;31040;51.622;10.420;2022-11-15T09:43:55;5.93;;;4.82;;
45296;SDS011;31040;51.622;10.420;2022-11-15T09:46:42;4.70;;;4.03;;
45296;SDS011;31040;51.622;10.420;2022-11-15T09:49:13;5.90;;;4.97;;
45296;SDS011;31040;51.622;10.420;2022-11-15T09:51:42;6.40;;;4.78;;
45296;SDS011;31040;51.622;10.420;2022-11-15T09:54:26;5.28;;;4.03;;
45296;SDS011;31040;51.622;10.420;2022-11-15T09:57:15;5.82;;;4.28;;
45296;SDS011;31040;51.622;10.420;2022-11-15T10:05:19;5.53;;;3.85;;
45296;SDS011;31040;51.622;10.420;2022-11-15T10:13:01;4.85;;;3.60;;
45296;SDS011;31040;51.622;10.420;2022-11-15T10:15:28;4.35;;;3.95;;
45296;SDS011;31040;51.622;10.420;2022-11-15T10:20:27;7.07;;;3.65;;
45296;SDS011;31040;51.622;10.420;2022-11-15T10:22:56;4.53;;;3.50;;
45296;SDS011;31040;51.622;10.420;2022-11-15T10:25:30;7.10;;;3.80;;
45296;SDS011;31040;51.622;10.420;2022-11-15T10:28:01;5.85;;;3.53;;
45296;SDS011;31040;51.622;10.420;2022-11-15T10:30:34;4.18;;;3.10;;
45296;SDS011;31040;51.622;10.420;2022-11-15T10:33:10;4.72;;;3.70;;
45296;SDS011;31040;51.622;10.420;2022-11-15T10:35:38;5.78;;;3.53;;
45296;SDS011;31040;51.622;10.420;2022-11-15T10:38:07;4.95;;;3.45;;
45296;SDS011;31040;51.622;10.420;2022-11-15T10:40:35;4.70;;;3.22;;
45296;SDS011;31040;51.622;10.420;2022-11-15T10:43:23;4.63;;;2.70;;
45296;SDS011;31040;51.622;10.420;2022-11-15T10:45:52;5.47;;;3.53;;
45296;SDS011;31040;51.622;10.420;2022-11-15T10:48:20;5.00;;;3.88;;
45296;SDS011;31040;51.622;10.420;2022-11-15T10:50:49;6.30;;;3.92;;
45296;SDS011;31040;51.622;10.420;2022-11-15T10:55:49;5.28;;;3.70;;
45296;SDS011;31040;51.622;10.420;2022-11-15T11:00:47;4.03;;;3.55;;
45296;SDS011;31040;51.622;10.420;2022-11-15T11:03:28;5.30;;;3.30;;
45296;SDS011;31040;51.622;10.420;2022-11-15T11:06:31;6.10;;;3.92;;
45296;SDS011;31040;51.622;10.420;2022-11-15T11:11:24;4.47;;;3.25;;
45296;SDS011;31040;51.622;10.420;2022-11-15T11:13:51;3.92;;;3.10;;
45296;SDS011;31040;51.622;10.420;2022-11-15T11:18:54;10.15;;;4.68;;
45296;SDS011;31040;51.622;10.420;2022-11-15T11:24:08;4.30;;;3.10;;
45296;SDS011;31040;51.622;10.420;2022-11-15T11:29:17;5.13;;;4.60;;
45296;SDS011;31040;51.622;10.420;2022-11-15T11:37:09;5.10;;;3.88;;
45296;SDS011;31040;51.622;10.420;2022-11-15T11:42:23;6.55;;;3.58;;
45296;SDS011;31040;51.622;10.420;2022-11-15T11:47:31;4.53;;;3.50;;
45296;SDS011;31040;51.622;10.420;2022-11-15T11:50:13;6.22;;;3.85;;
45296;SDS011;31040;51.622;10.420;2022-11-15T11:52:43;5.85;;;4.22;;
45296;SDS011;31040;51.622;10.420;2022-11-15T12:00:21;4.82;;;3.47;;
45296;SDS011;31040;51.622;10.420;2022-11-15T12:05:25;5.40;;;3.42;;
45296;SDS011;31040;51.622;10.420;2022-11-15T12:07:54;4.18;;;3.47;;
45296;SDS011;31040;51.622;10.420;2022-11-15T12:10:29;5.80;;;4.35;;
45296;SDS011;31040;51.622;10.420;2022-11-15T12:13:04;6.85;;;3.78;;
45296;SDS011;31040;51.622;10.420;2022-11-15T12:15:53;4.28;;;3.35;;
45296;SDS011;31040;51.622;10.420;2022-11-15T12:18:23;4.28;;;3.88;;
45296;SDS011;31040;51.622;10.420;2022-11-15T12:20:53;3.47;;;3.15;;
45296;SDS011;31040;51.622;10.420;2022-11-15T12:23:27;6.63;;;3.47;;
45296;SDS011;31040;51.622;10.420;2022-11-15T12:26:05;5.03;;;4.03;;
45296;SDS011;31040;51.622;10.420;2022-11-15T12:28:38;4.25;;;3.67;;
45296;SDS011;31040;51.622;10.420;2022-11-15T12:33:57;4.32;;;3.40;;
45296;SDS011;31040;51.622;10.420;2022-11-15T12:39:03;4.82;;;3.42;;
45296;SDS011;31040;51.622;10.420;2022-11-15T12:41:35;5.60;;;4.03;;
45296;SDS011;31040;51.622;10.420;2022-11-15T12:44:03;5.55;;;3.00;;
45296;SDS011;31040;51.622;10.420;2022-11-15T12:52:03;4.38;;;3.40;;
45296;SDS011;31040;51.622;10.420;2022-11-15T13:22:38;4.07;;;3.22;;
45296;SDS011;31040;51.622;10.420;2022-11-15T13:30:33;3.67;;;3.05;;
45296;SDS011;31040;51.622;10.420;2022-11-15T13:33:05;6.00;;;3.47;;
45296;SDS011;31040;51.622;10.420;2022-11-15T13:35:36;5.90;;;3.50;;
45296;SDS011;31040;51.622;10.420;2022-11-15T13:38:06;5.72;;;3.30;;
45296;SDS011;31040;51.622;10.420;2022-11-15T13:40:34;6.60;;;3.20;;
45296;SDS011;31040;51.622;10.420;2022-11-15T13:46:07;5.15;;;3.40;;
45296;SDS011;31040;51.622;10.420;2022-11-15T13:48:35;5.32;;;3.60;;
45296;SDS011;31040;51.622;10.420;2022-11-15T13:51:03;3.30;;;3.00;;
45296;SDS011;31040;51.622;10.420;2022-11-15T13:53:32;3.15;;;2.92;;
45296;SDS011;31040;51.622;10.420;2022-11-15T13:56:00;5.78;;;3.20;;
45296;SDS011;31040;51.622;10.420;2022-11-15T13:58:30;4.30;;;3.17;;
45296;SDS011;31040;51.622;10.420;2022-11-15T14:01:02;4.03;;;3.05;;
45296;SDS011;31040;51.622;10.420;2022-11-15T14:03:31;3.45;;;2.97;;
45296;SDS011;31040;51.622;10.420;2022-11-15T14:06:03;3.35;;;2.88;;
45296;SDS011;31040;51.622;10.420;2022-11-15T14:08:30;4.68;;;3.70;;
45296;SDS011;31040;51.622;10.420;2022-11-15T14:13:39;4.18;;;3.15;;
45296;SDS011;31040;51.622;10.420;2022-11-15T14:16:19;3.90;;;3.20;;
45296;SDS011;31040;51.622;10.420;2022-11-15T14:18:48;5.93;;;4.30;;
45296;SDS011;31040;51.622;10.420;2022-11-15T14:21:17;3.75;;;3.10;;
45296;SDS011;31040;51.622;10.420;2022-11-15T14:23:44;4.53;;;3.25;;
45296;SDS011;31040;51.622;10.420;2022-11-15T14:26:32;5.15;;;3.72;;
45296;SDS011;31040;51.622;10.420;2022-11-15T14:31:46;5.13;;;4.65;;
45296;SDS011;31040;51.622;10.420;2022-11-15T14:34:13;5.07;;;4.45;;
45296;SDS011;31040;51.622;10.420;2022-11-15T14:36:40;6.57;;;4.40;;
45296;SDS011;31040;51.622;10.420;2022-11-15T14:39:08;5.32;;;4.82;;
45296;SDS011;31040;51.622;10.420;2022-11-15T14:41:36;3.42;;;3.13;;
45296;SDS011;31040;51.622;10.420;2022-11-15T14:44:09;4.53;;;3.47;;
45296;SDS011;31040;51.622;10.420;2022-11-15T14:46:38;7.35;;;4.50;;
45296;SDS011;31040;51.622;10.420;2022-11-15T14:49:06;4.07;;;3.67;;
45296;SDS011;31040;51.622;10.420;2022-11-15T14:51:33;5.15;;;2.95;;
45296;SDS011;31040;51.622;10.420;2022-11-15T14:54:01;3.97;;;3.20;;
45296;SDS011;31040;51.622;10.420;2022-11-15T14:56:28;3.42;;;3.13;;
45296;SDS011;31040;51.622;10.420;2022-11-15T14:58:56;4.13;;;2.72;;
45296;SDS011;31040;51.622;10.420;2022-11-15T15:01:24;2.97;;;2.63;;
45296;SDS011;31040;51.622;10.420;2022-11-15T15:03:53;3.60;;;3.10;;
45296;SDS011;31040;51.622;10.420;2022-11-15T15:06:23;3.25;;;2.95;;
45296;SDS011;31040;51.622;10.420;2022-11-15T15:08:50;5.57;;;2.95;;
45296;SDS011;31040;51.622;10.420;2022-11-15T15:13:45;13.90;;;4.00;;
45296;SDS011;31040;51.622;10.420;2022-11-15T15:16:13;3.63;;;3.30;;
45296;SDS011;31040;51.622;10.420;2022-11-15T15:18:43;4.75;;;3.20;;
45296;SDS011;31040;51.622;10.420;2022-11-15T15:21:29;4.10;;;3.50;;
45296;SDS011;31040;51.622;10.420;2022-11-15T15:24:02;5.20;;;3.05;;
45296;SDS011;31040;51.622;10.420;2022-11-15T15:26:30;14.57;;;3.90;;
45296;SDS011;31040;51.622;10.420;2022-11-15T15:29:02;6.00;;;3.20;;
45296;SDS011;31040;51.622;10.420;2022-11-15T15:31:30;6.38;;;3.47;;
45296;SDS011;31040;51.622;10.420;2022-11-15T15:33:59;5.82;;;3.25;;
45296;SDS011;31040;51.622;10.420;2022-11-15T15:36:26;8.73;;;3.65;;
45296;SDS011;31040;51.622;10.420;2022-11-15T15:38:53;5.80;;;3.05;;
45296;SDS011;31040;51.622;10.420;2022-11-15T15:41:21;11.00;;;3.78;;
45296;SDS011;31040;51.622;10.420;2022-11-15T15:43:48;4.03;;;2.80;;
45296;SDS011;31040;51.622;10.420;2022-11-15T15:46:16;4.57;;;2.78;;
45296;SDS011;31040;51.622;10.420;2022-11-15T15:48:45;6.53;;;2.92;;
45296;SDS011;31040;51.622;10.420;2022-11-15T15:51:13;6.03;;;3.47;;
45296;SDS011;31040;51.622;10.420;2022-11-15T15:53:46;2.90;;;2.53;;
45296;SDS011;31040;51.622;10.420;2022-11-15T15:56:13;3.38;;;2.85;;
45296;SDS011;31040;51.622;10.420;2022-11-15T15:58:41;3.80;;;2.88;;
45296;SDS011;31040;51.622;10.420;2022-11-15T16:01:08;3.20;;;2.67;;
45296;SDS011;31040;51.622;10.420;2022-11-15T16:03:36;2.63;;;2.42;;
45296;SDS011;31040;51.622;10.420;2022-11-15T16:06:03;3.30;;;3.00;;
45296;SDS011;31040;51.622;10.420;2022-11-15T16:08:31;4.35;;;3.15;;
45296;SDS011;31040;51.622;10.420;2022-11-15T16:11:19;4.22;;;2.90;;
45296;SDS011;31040;51.622;10.420;2022-11-15T16:13:46;4.30;;;2.40;;
45296;SDS011;31040;51.622;10.420;2022-11-15T16:16:13;3.33;;;2.90;;
45296;SDS011;31040;51.622;10.420;2022-11-15T16:18:41;5.75;;;2.65;;
45296;SDS011;31040;51.622;10.420;2022-11-15T16:21:08;3.13;;;2.70;;
45296;SDS011;31040;51.622;10.420;2022-11-15T16:23:35;4.25;;;3.00;;
45296;SDS011;31040;51.622;10.420;2022-11-15T16:26:06;3.90;;;3.10;;
45296;SDS011;31040;51.622;10.420;2022-11-15T16:28:38;2.85;;;2.55;;
45296;SDS011;31040;51.622;10.420;2022-11-15T16:31:07;4.50;;;2.88;;
45296;SDS011;31040;51.622;10.420;2022-11-15T16:33:36;4.78;;;2.55;;
45296;SDS011;31040;51.622;10.420;2022-11-15T16:36:04;2.95;;;2.40;;
45296;SDS011;31040;51.622;10.420;2022-11-15T16:38:31;2.78;;;2.58;;
45296;SDS011;31040;51.622;10.420;2022-11-15T16:41:00;2.92;;;2.63;;
45296;SDS011;31040;51.622;10.420;2022-11-15T16:43:27;3.75;;;3.10;;
45296;SDS011;31040;51.622;10.420;2022-11-15T16:45:55;5.50;;;4.18;;
45296;SDS011;31040;51.622;10.420;2022-11-15T16:48:23;4.03;;;3.35;;
45296;SDS011;31040;51.622;10.420;2022-11-15T16:50:54;4.05;;;3.30;;
45296;SDS011;31040;51.622;10.420;2022-11-15T16:53:23;4.15;;;3.08;;
45296;SDS011;31040;51.622;10.420;2022-11-15T16:55:50;5.35;;;3.78;;
45296;SDS011;31040;51.622;10.420;2022-11-15T16:58:18;3.90;;;2.95;;
45296;SDS011;31040;51.622;10.420;2022-11-15T17:00:48;3.00;;;2.70;;
45296;SDS011;31040;51.622;10.420;2022-11-15T17:03:18;5.43;;;2.97;;
45296;SDS011;31040;51.622;10.420;2022-11-15T17:05:50;5.35;;;3.53;;
45296;SDS011;31040;51.622;10.420;2022-11-15T17:08:18;3.40;;;3.00;;
45296;SDS011;31040;51.622;10.420;2022-11-15T17:10:52;4.57;;;3.40;;
45296;SDS011;31040;51.622;10.420;2022-11-15T17:13:36;4.22;;;3.47;;